sensor_id;sensor_type;location;lat;lon;timestamp;pressure;altitude;pressure_sealevel;temperature;humidity
55217;BME280;41086;46.736;15.666;2022-08-19T00:01:34;97900.66;;;17.66;100.00
55217;BME280;41086;46.736;15.666;2022-08-19T00:04:06;97904.69;;;17.62;100.00
55217;BME280;41086;46.736;15.666;2022-08-19T00:06:35;97905.84;;;17.60;100.00
55217;BME280;41086;46.736;15.666;2022-08-19T00:09:04;97899.47;;;17.61;100.00
55217;BME280;41086;46.736;15.666;2022-08-19T00:11:31;97898.13;;;17.57;100.00
55217;BME280;41086;46.736;15.666;2022-08-19T00:13:58;97900.63;;;17.58;100.00
55217;BME280;41086;46.736;15.666;2022-08-19T00:16:26;97896.63;;;17.54;100.00
55217;BME280;41086;46.736;15.666;2022-08-19T00:18:54;97910.38;;;17.59;100.00
55217;BME280;41086;46.736;15.666;2022-08-19T00:21:25;97897.16;;;17.66;100.00
55217;BME280;41086;46.736;15.666;2022-08-19T00:23:55;97901.50;;;17.67;100.00
55217;BME280;41086;46.736;15.666;2022-08-19T00:26:26;97908.66;;;17.50;100.00
55217;BME280;41086;46.736;15.666;2022-08-19T00:28:52;97891.22;;;17.38;100.00
55217;BME280;41086;46.736;15.666;2022-08-19T00:31:20;97873.28;;;17.30;100.00
55217;BME280;41086;46.736;15.666;2022-08-19T00:33:47;97877.75;;;17.13;100.00
55217;BME280;41086;46.736;15.666;2022-08-19T00:36:17;97878.31;;;16.99;100.00
55217;BME280;41086;46.736;15.666;2022-08-19T00:38:43;97871.66;;;17.03;100.00
55217;BME280;41086;46.736;15.666;2022-08-19T00:41:16;97870.34;;;17.07;100.00
55217;BME280;41086;46.736;15.666;2022-08-19T00:46:33;97875.53;;;17.09;100.00
55217;BME280;41086;46.736;15.666;2022-08-19T00:49:27;97880.91;;;17.09;100.00
55217;BME280;41086;46.736;15.666;2022-08-19T00:51:57;97887.09;;;17.09;100.00
55217;BME280;41086;46.736;15.666;2022-08-19T00:54:27;97878.56;;;17.14;100.00
55217;BME280;41086;46.736;15.666;2022-08-19T00:56:57;97874.75;;;17.16;100.00
55217;BME280;41086;46.736;15.666;2022-08-19T00:59:26;97895.50;;;17.22;100.00
55217;BME280;41086;46.736;15.666;2022-08-19T01:02:16;97916.94;;;17.22;100.00
55217;BME280;41086;46.736;15.666;2022-08-19T01:04:43;97910.22;;;17.18;100.00
55217;BME280;41086;46.736;15.666;2022-08-19T01:07:10;97912.38;;;17.15;100.00
55217;BME280;41086;46.736;15.666;2022-08-19T01:09:45;97905.47;;;17.04;100.00
55217;BME280;41086;46.736;15.666;2022-08-19T01:12:12;97905.41;;;16.96;100.00
55217;BME280;41086;46.736;15.666;2022-08-19T01:14:40;97892.69;;;16.90;100.00
55217;BME280;41086;46.736;15.666;2022-08-19T01:17:09;97880.94;;;16.82;100.00
55217;BME280;41086;46.736;15.666;2022-08-19T01:19:39;97877.91;;;16.77;100.00
55217;BME280;41086;46.736;15.666;2022-08-19T01:22:30;97877.09;;;16.85;100.00
55217;BME280;41086;46.736;15.666;2022-08-19T01:25:00;97872.78;;;16.92;100.00
55217;BME280;41086;46.736;15.666;2022-08-19T01:27:27;97871.41;;;16.88;100.00
55217;BME280;41086;46.736;15.666;2022-08-19T01:30:14;97882.31;;;16.87;100.00
55217;BME280;41086;46.736;15.666;2022-08-19T01:32:42;97870.53;;;16.79;100.00
55217;BME280;41086;46.736;15.666;2022-08-19T01:35:11;97857.53;;;16.84;100.00
55217;BME280;41086;46.736;15.666;2022-08-19T01:37:54;97857.47;;;16.76;100.00
55217;BME280;41086;46.736;15.666;2022-08-19T01:40:23;97837.22;;;16.74;100.00
55217;BME280;41086;46.736;15.666;2022-08-19T01:42:52;97821.16;;;16.74;100.00
55217;BME280;41086;46.736;15.666;2022-08-19T01:45:21;97822.16;;;16.73;100.00
55217;BME280;41086;46.736;15.666;2022-08-19T01:47:49;97818.66;;;16.72;100.00
55217;BME280;41086;46.736;15.666;2022-08-19T01:50:30;97806.63;;;16.76;100.00
55217;BME280;41086;46.736;15.666;2022-08-19T01:52:58;97806.00;;;16.82;100.00
55217;BME280;41086;46.736;15.666;2022-08-19T01:55:36;97815.53;;;16.85;100.00
55217;BME280;41086;46.736;15.666;2022-08-19T01:58:11;97826.28;;;16.93;100.00
55217;BME280;41086;46.736;15.666;2022-08-19T02:00:39;97826.78;;;16.89;100.00
55217;BME280;41086;46.736;15.666;2022-08-19T02:03:06;97837.31;;;16.90;100.00
55217;BME280;41086;46.736;15.666;2022-08-19T02:05:33;97827.28;;;16.92;100.00
55217;BME280;41086;46.736;15.666;2022-08-19T02:08:00;97831.63;;;16.93;100.00
55217;BME280;41086;46.736;15.666;2022-08-19T02:10:26;97839.84;;;16.92;100.00
55217;BME280;41086;46.736;15.666;2022-08-19T02:12:53;97841.38;;;16.94;100.00
55217;BME280;41086;46.736;15.666;2022-08-19T02:15:21;97848.69;;;16.92;100.00
55217;BME280;41086;46.736;15.666;2022-08-19T02:17:48;97838.50;;;16.96;100.00
55217;BME280;41086;46.736;15.666;2022-08-19T02:20:16;97841.19;;;16.96;100.00
55217;BME280;41086;46.736;15.666;2022-08-19T02:22:43;97836.00;;;16.94;100.00
55217;BME280;41086;46.736;15.666;2022-08-19T02:25:12;97833.47;;;16.93;100.00
55217;BME280;41086;46.736;15.666;2022-08-19T02:27:40;97839.34;;;16.96;100.00
55217;BME280;41086;46.736;15.666;2022-08-19T02:30:10;97840.84;;;16.99;100.00
55217;BME280;41086;46.736;15.666;2022-08-19T02:32:40;97838.72;;;17.02;100.00
55217;BME280;41086;46.736;15.666;2022-08-19T02:35:12;97839.03;;;16.99;100.00
55217;BME280;41086;46.736;15.666;2022-08-19T02:37:39;97842.53;;;16.92;100.00
55217;BME280;41086;46.736;15.666;2022-08-19T02:40:26;97834.50;;;16.92;100.00
55217;BME280;41086;46.736;15.666;2022-08-19T02:42:57;97833.47;;;16.93;100.00
55217;BME280;41086;46.736;15.666;2022-08-19T02:45:33;97832.66;;;16.92;100.00
55217;BME280;41086;46.736;15.666;2022-08-19T02:48:08;97826.28;;;16.93;100.00
55217;BME280;41086;46.736;15.666;2022-08-19T02:50:48;97831.63;;;16.93;100.00
55217;BME280;41086;46.736;15.666;2022-08-19T02:53:19;97830.47;;;16.96;100.00
55217;BME280;41086;46.736;15.666;2022-08-19T02:55:46;97829.28;;;16.90;100.00
55217;BME280;41086;46.736;15.666;2022-08-19T02:58:14;97812.50;;;16.80;100.00
55217;BME280;41086;46.736;15.666;2022-08-19T03:00:46;97822.38;;;16.79;100.00
55217;BME280;41086;46.736;15.666;2022-08-19T03:03:13;97817.13;;;16.70;100.00
55217;BME280;41086;46.736;15.666;2022-08-19T03:05:41;97811.94;;;16.68;100.00
55217;BME280;41086;46.736;15.666;2022-08-19T03:08:21;97804.75;;;16.69;100.00
55217;BME280;41086;46.736;15.666;2022-08-19T03:10:48;97808.94;;;16.71;100.00
55217;BME280;41086;46.736;15.666;2022-08-19T03:13:17;97814.13;;;16.73;100.00
55217;BME280;41086;46.736;15.666;2022-08-19T03:15:46;97826.50;;;16.74;100.00
55217;BME280;41086;46.736;15.666;2022-08-19T03:18:13;97838.63;;;16.78;100.00
55217;BME280;41086;46.736;15.666;2022-08-19T03:20:47;97844.47;;;16.81;100.00
55217;BME280;41086;46.736;15.666;2022-08-19T03:23:16;97848.69;;;16.92;100.00
55217;BME280;41086;46.736;15.666;2022-08-19T03:25:49;97858.94;;;16.97;100.00
55217;BME280;41086;46.736;15.666;2022-08-19T03:28:36;97857.94;;;16.98;100.00
55217;BME280;41086;46.736;15.666;2022-08-19T03:31:11;97855.25;;;16.98;100.00
55217;BME280;41086;46.736;15.666;2022-08-19T03:33:58;97870.47;;;16.97;100.00
55217;BME280;41086;46.736;15.666;2022-08-19T03:36:26;97879.47;;;16.96;100.00
55217;BME280;41086;46.736;15.666;2022-08-19T03:38:57;97885.19;;;17.01;100.00
55217;BME280;41086;46.736;15.666;2022-08-19T03:41:35;97884.38;;;17.01;100.00
55217;BME280;41086;46.736;15.666;2022-08-19T03:44:13;97878.00;;;16.94;100.00
55217;BME280;41086;46.736;15.666;2022-08-19T03:46:44;97884.63;;;16.81;100.00
55217;BME280;41086;46.736;15.666;2022-08-19T03:49:11;97898.75;;;16.74;100.00
55217;BME280;41086;46.736;15.666;2022-08-19T03:51:41;97896.53;;;16.69;100.00
55217;BME280;41086;46.736;15.666;2022-08-19T03:54:10;97893.56;;;16.72;100.00
55217;BME280;41086;46.736;15.666;2022-08-19T03:56:39;97881.66;;;16.67;100.00
55217;BME280;41086;46.736;15.666;2022-08-19T03:59:10;97885.53;;;16.72;100.00
55217;BME280;41086;46.736;15.666;2022-08-19T04:01:37;97898.00;;;16.81;100.00
55217;BME280;41086;46.736;15.666;2022-08-19T04:04:04;97898.06;;;16.98;100.00
55217;BME280;41086;46.736;15.666;2022-08-19T04:06:34;97901.66;;;17.15;100.00
55217;BME280;41086;46.736;15.666;2022-08-19T04:09:07;97914.94;;;17.24;100.00
55217;BME280;41086;46.736;15.666;2022-08-19T04:11:41;97924.34;;;17.37;100.00
55217;BME280;41086;46.736;15.666;2022-08-19T04:14:13;97930.78;;;17.52;100.00
55217;BME280;41086;46.736;15.666;2022-08-19T04:16:41;97937.34;;;17.66;100.00
55217;BME280;41086;46.736;15.666;2022-08-19T04:19:10;97921.13;;;17.76;100.00
55217;BME280;41086;46.736;15.666;2022-08-19T04:21:44;97914.44;;;17.80;100.00
55217;BME280;41086;46.736;15.666;2022-08-19T04:24:15;97911.06;;;17.78;100.00
55217;BME280;41086;46.736;15.666;2022-08-19T04:26:42;97910.56;;;17.74;100.00
55217;BME280;41086;46.736;15.666;2022-08-19T04:29:16;97903.53;;;17.73;100.00
55217;BME280;41086;46.736;15.666;2022-08-19T04:31:44;97900.50;;;17.68;100.00
55217;BME280;41086;46.736;15.666;2022-08-19T04:34:13;97907.53;;;17.69;100.00
55217;BME280;41086;46.736;15.666;2022-08-19T04:36:41;97903.19;;;17.68;100.00
55217;BME280;41086;46.736;15.666;2022-08-19T04:39:13;97901.66;;;17.65;100.00
55217;BME280;41086;46.736;15.666;2022-08-19T04:41:41;97890.63;;;17.68;100.00
55217;BME280;41086;46.736;15.666;2022-08-19T04:44:27;97912.44;;;17.82;100.00
55217;BME280;41086;46.736;15.666;2022-08-19T04:46:59;97911.13;;;17.94;100.00
55217;BME280;41086;46.736;15.666;2022-08-19T04:49:27;97918.16;;;17.95;100.00
55217;BME280;41086;46.736;15.666;2022-08-19T04:51:54;97952.22;;;18.11;100.00
55217;BME280;41086;46.736;15.666;2022-08-19T04:54:24;97956.41;;;18.22;100.00
55217;BME280;41086;46.736;15.666;2022-08-19T04:57:06;97932.09;;;18.23;100.00
55217;BME280;41086;46.736;15.666;2022-08-19T04:59:35;97958.91;;;18.39;100.00
55217;BME280;41086;46.736;15.666;2022-08-19T05:02:04;97973.50;;;18.45;100.00
55217;BME280;41086;46.736;15.666;2022-08-19T05:04:32;97986.09;;;18.45;100.00
55217;BME280;41086;46.736;15.666;2022-08-19T05:07:00;97994.63;;;18.48;100.00
55217;BME280;41086;46.736;15.666;2022-08-19T05:09:29;98007.41;;;18.46;100.00
55217;BME280;41086;46.736;15.666;2022-08-19T05:12:16;98005.56;;;18.47;100.00
55217;BME280;41086;46.736;15.666;2022-08-19T05:14:45;98002.53;;;18.50;100.00
55217;BME280;41086;46.736;15.666;2022-08-19T05:17:17;97987.94;;;18.44;100.00
55217;BME280;41086;46.736;15.666;2022-08-19T05:20:04;97990.97;;;18.41;100.00
55217;BME280;41086;46.736;15.666;2022-08-19T05:22:50;97972.66;;;18.28;100.00
55217;BME280;41086;46.736;15.666;2022-08-19T05:25:19;97978.38;;;18.33;100.00
55217;BME280;41086;46.736;15.666;2022-08-19T05:27:47;97995.84;;;18.37;100.00
55217;BME280;41086;46.736;15.666;2022-08-19T05:30:16;98006.38;;;18.39;100.00
55217;BME280;41086;46.736;15.666;2022-08-19T05:32:59;97986.44;;;18.33;100.00
55217;BME280;41086;46.736;15.666;2022-08-19T05:35:27;98006.03;;;18.50;100.00
55217;BME280;41086;46.736;15.666;2022-08-19T05:38:00;98007.22;;;18.56;100.00
55217;BME280;41086;46.736;15.666;2022-08-19T05:40:27;98010.44;;;18.59;100.00
55217;BME280;41086;46.736;15.666;2022-08-19T05:42:54;98003.69;;;18.64;100.00
55217;BME280;41086;46.736;15.666;2022-08-19T05:45:22;98002.53;;;18.66;100.00
55217;BME280;41086;46.736;15.666;2022-08-19T05:47:49;97995.84;;;18.62;100.00
55217;BME280;41086;46.736;15.666;2022-08-19T05:50:15;97994.31;;;18.59;100.00
55217;BME280;41086;46.736;15.666;2022-08-19T05:52:44;98000.88;;;18.49;100.00
55217;BME280;41086;46.736;15.666;2022-08-19T05:55:18;97993.66;;;18.49;100.00
55217;BME280;41086;46.736;15.666;2022-08-19T05:57:47;97998.53;;;18.46;100.00
55217;BME280;41086;46.736;15.666;2022-08-19T06:00:15;98010.25;;;18.53;100.00
55217;BME280;41086;46.736;15.666;2022-08-19T06:02:48;98015.28;;;18.64;100.00
55217;BME280;41086;46.736;15.666;2022-08-19T06:06:10;98010.75;;;18.73;100.00
55217;BME280;41086;46.736;15.666;2022-08-19T06:08:38;98003.53;;;18.73;100.00
55217;BME280;41086;46.736;15.666;2022-08-19T06:11:23;98001.03;;;18.80;100.00
55217;BME280;41086;46.736;15.666;2022-08-19T06:13:52;97994.50;;;18.82;100.00
55217;BME280;41086;46.736;15.666;2022-08-19T06:16:25;97984.25;;;18.86;100.00
55217;BME280;41086;46.736;15.666;2022-08-19T06:18:54;97967.47;;;18.92;100.00
55217;BME280;41086;46.736;15.666;2022-08-19T06:21:23;97973.66;;;19.01;100.00
55217;BME280;41086;46.736;15.666;2022-08-19T06:23:52;97979.84;;;19.18;100.00
55217;BME280;41086;46.736;15.666;2022-08-19T06:26:21;97974.41;;;19.34;100.00
55217;BME280;41086;46.736;15.666;2022-08-19T06:28:50;97975.69;;;19.55;100.00
55217;BME280;41086;46.736;15.666;2022-08-19T06:31:19;97989.91;;;19.72;100.00
55217;BME280;41086;46.736;15.666;2022-08-19T06:33:48;97983.16;;;19.76;100.00
55217;BME280;41086;46.736;15.666;2022-08-19T06:36:20;97991.19;;;19.84;100.00
55217;BME280;41086;46.736;15.666;2022-08-19T06:38:50;97996.09;;;19.80;100.00
55217;BME280;41086;46.736;15.666;2022-08-19T06:41:17;98005.53;;;19.76;100.00
55217;BME280;41086;46.736;15.666;2022-08-19T06:43:44;98025.53;;;19.74;100.00
55217;BME280;41086;46.736;15.666;2022-08-19T06:46:12;98034.28;;;19.67;100.00
55217;BME280;41086;46.736;15.666;2022-08-19T06:48:41;98022.34;;;19.62;100.00
55217;BME280;41086;46.736;15.666;2022-08-19T06:51:15;98021.88;;;19.50;100.00
55217;BME280;41086;46.736;15.666;2022-08-19T06:53:46;98024.25;;;19.45;100.00
55217;BME280;41086;46.736;15.666;2022-08-19T06:56:17;98028.78;;;19.53;100.00
55217;BME280;41086;46.736;15.666;2022-08-19T06:58:44;98045.34;;;19.64;100.00
55217;BME280;41086;46.736;15.666;2022-08-19T07:01:11;98051.06;;;19.78;100.00
55217;BME280;41086;46.736;15.666;2022-08-19T07:03:39;98030.84;;;19.90;100.00
55217;BME280;41086;46.736;15.666;2022-08-19T07:06:13;98024.72;;;20.04;100.00
55217;BME280;41086;46.736;15.666;2022-08-19T07:09:09;98011.28;;;20.27;100.00
55217;BME280;41086;46.736;15.666;2022-08-19T07:11:38;98014.78;;;20.36;100.00
55217;BME280;41086;46.736;15.666;2022-08-19T07:14:04;98009.13;;;20.46;100.00
55217;BME280;41086;46.736;15.666;2022-08-19T07:16:46;98022.41;;;20.55;100.00
55217;BME280;41086;46.736;15.666;2022-08-19T07:19:14;98026.03;;;20.63;100.00
55217;BME280;41086;46.736;15.666;2022-08-19T07:21:47;98022.81;;;20.67;100.00
55217;BME280;41086;46.736;15.666;2022-08-19T07:24:16;98029.03;;;20.68;100.00
55217;BME280;41086;46.736;15.666;2022-08-19T07:26:44;98033.78;;;20.66;100.00
55217;BME280;41086;46.736;15.666;2022-08-19T07:29:12;98038.13;;;20.67;100.00
55217;BME280;41086;46.736;15.666;2022-08-19T07:31:39;98058.63;;;20.68;100.00
55217;BME280;41086;46.736;15.666;2022-08-19T07:34:10;98061.63;;;20.73;100.00
55217;BME280;41086;46.736;15.666;2022-08-19T07:36:40;98080.41;;;20.81;100.00
55217;BME280;41086;46.736;15.666;2022-08-19T07:39:30;98078.84;;;20.87;100.00
55217;BME280;41086;46.736;15.666;2022-08-19T07:42:06;98077.00;;;20.87;100.00
55217;BME280;41086;46.736;15.666;2022-08-19T07:44:40;98084.25;;;20.87;100.00
55217;BME280;41086;46.736;15.666;2022-08-19T07:47:07;98071.34;;;20.82;100.00
55217;BME280;41086;46.736;15.666;2022-08-19T07:49:54;98048.94;;;20.81;100.00
55217;BME280;41086;46.736;15.666;2022-08-19T07:52:21;98052.19;;;20.77;100.00
55217;BME280;41086;46.736;15.666;2022-08-19T07:54:48;98057.28;;;20.72;100.00
55217;BME280;41086;46.736;15.666;2022-08-19T07:57:17;98067.44;;;20.62;100.00
55217;BME280;41086;46.736;15.666;2022-08-19T07:59:46;98083.91;;;20.67;100.00
55217;BME280;41086;46.736;15.666;2022-08-19T08:02:16;98061.84;;;20.71;100.00
55217;BME280;41086;46.736;15.666;2022-08-19T08:04:50;98062.31;;;20.75;100.00
55217;BME280;41086;46.736;15.666;2022-08-19T08:07:35;98053.69;;;20.79;100.00
55217;BME280;41086;46.736;15.666;2022-08-19T08:10:21;98060.00;;;20.87;100.00
55217;BME280;41086;46.736;15.666;2022-08-19T08:12:51;98053.19;;;20.99;100.00
55217;BME280;41086;46.736;15.666;2022-08-19T08:15:37;98032.94;;;21.03;100.00
55217;BME280;41086;46.736;15.666;2022-08-19T08:18:10;98028.78;;;21.15;100.00
55217;BME280;41086;46.736;15.666;2022-08-19T08:20:38;98017.94;;;21.23;100.00
55217;BME280;41086;46.736;15.666;2022-08-19T08:23:05;98007.06;;;21.32;100.00
55217;BME280;41086;46.736;15.666;2022-08-19T08:25:55;98013.50;;;21.45;100.00
55217;BME280;41086;46.736;15.666;2022-08-19T08:28:24;98024.75;;;21.49;100.00
55217;BME280;41086;46.736;15.666;2022-08-19T08:30:54;98014.97;;;21.63;100.00
55217;BME280;41086;46.736;15.666;2022-08-19T08:33:28;98001.28;;;21.79;100.00
55217;BME280;41086;46.736;15.666;2022-08-19T08:36:04;98004.25;;;21.99;100.00
55217;BME280;41086;46.736;15.666;2022-08-19T08:38:37;98003.94;;;22.09;100.00
55217;BME280;41086;46.736;15.666;2022-08-19T08:43:51;97999.63;;;22.14;100.00
55217;BME280;41086;46.736;15.666;2022-08-19T08:46:36;98002.09;;;21.95;100.00
55217;BME280;41086;46.736;15.666;2022-08-19T08:49:23;98033.22;;;21.61;100.00
55217;BME280;41086;46.736;15.666;2022-08-19T08:52:04;98044.63;;;21.63;100.00
55217;BME280;41086;46.736;15.666;2022-08-19T08:54:41;98052.38;;;21.51;100.00
55217;BME280;41086;46.736;15.666;2022-08-19T09:00:41;98019.41;;;21.26;100.00
55217;BME280;41086;46.736;15.666;2022-08-19T09:03:26;98030.44;;;21.69;100.00
55217;BME280;41086;46.736;15.666;2022-08-19T09:06:03;98019.78;;;21.97;100.00
55217;BME280;41086;46.736;15.666;2022-08-19T09:11:20;98033.22;;;22.12;100.00
55217;BME280;41086;46.736;15.666;2022-08-19T09:17:21;98018.66;;;22.21;100.00
55217;BME280;41086;46.736;15.666;2022-08-19T09:20:22;98030.41;;;22.35;100.00
55217;BME280;41086;46.736;15.666;2022-08-19T09:22:51;98058.13;;;22.44;100.00
55217;BME280;41086;46.736;15.666;2022-08-19T09:25:20;98074.16;;;22.45;100.00
55217;BME280;41086;46.736;15.666;2022-08-19T09:27:55;98079.03;;;22.56;100.00
55217;BME280;41086;46.736;15.666;2022-08-19T09:30:31;98058.22;;;22.50;100.00
55217;BME280;41086;46.736;15.666;2022-08-19T09:32:59;98055.19;;;22.60;100.00
55217;BME280;41086;46.736;15.666;2022-08-19T09:35:29;98059.09;;;22.57;100.00
55217;BME280;41086;46.736;15.666;2022-08-19T09:37:59;98053.00;;;22.49;100.00
55217;BME280;41086;46.736;15.666;2022-08-19T09:40:30;98045.84;;;22.41;100.00
55217;BME280;41086;46.736;15.666;2022-08-19T09:43:03;98071.75;;;22.35;100.00
55217;BME280;41086;46.736;15.666;2022-08-19T09:45:38;98076.88;;;22.30;100.00
55217;BME280;41086;46.736;15.666;2022-08-19T09:48:05;98079.78;;;22.29;100.00
55217;BME280;41086;46.736;15.666;2022-08-19T09:50:32;98057.72;;;22.25;100.00
55217;BME280;41086;46.736;15.666;2022-08-19T09:53:01;98061.72;;;22.29;100.00
55217;BME280;41086;46.736;15.666;2022-08-19T09:55:28;98047.13;;;22.24;100.00
55217;BME280;41086;46.736;15.666;2022-08-19T09:58:01;98052.13;;;22.27;100.00
55217;BME280;41086;46.736;15.666;2022-08-19T10:00:29;98045.91;;;22.26;100.00
55217;BME280;41086;46.736;15.666;2022-08-19T10:02:57;98067.00;;;22.23;100.00
55217;BME280;41086;46.736;15.666;2022-08-19T10:05:24;98074.84;;;22.18;100.00
55217;BME280;41086;46.736;15.666;2022-08-19T10:08:10;98078.41;;;22.18;100.00
55217;BME280;41086;46.736;15.666;2022-08-19T10:10:42;98083.88;;;22.25;100.00
55217;BME280;41086;46.736;15.666;2022-08-19T10:13:15;98047.00;;;22.32;100.00
55217;BME280;41086;46.736;15.666;2022-08-19T10:15:44;98065.34;;;22.37;100.00
55217;BME280;41086;46.736;15.666;2022-08-19T10:18:16;98023.59;;;22.39;100.00
55217;BME280;41086;46.736;15.666;2022-08-19T10:20:46;98002.09;;;22.46;100.00
55217;BME280;41086;46.736;15.666;2022-08-19T10:23:20;98026.91;;;22.56;100.00
55217;BME280;41086;46.736;15.666;2022-08-19T10:25:49;98045.88;;;22.63;100.00
55217;BME280;41086;46.736;15.666;2022-08-19T10:28:17;98054.09;;;22.76;100.00
55217;BME280;41086;46.736;15.666;2022-08-19T10:30:45;98056.91;;;22.89;100.00
55217;BME280;41086;46.736;15.666;2022-08-19T10:33:16;98042.34;;;23.05;100.00
55217;BME280;41086;46.736;15.666;2022-08-19T10:36:10;98046.56;;;23.14;100.00
55217;BME280;41086;46.736;15.666;2022-08-19T10:38:39;98056.44;;;23.29;100.00
55217;BME280;41086;46.736;15.666;2022-08-19T10:41:23;98037.03;;;23.53;100.00
55217;BME280;41086;46.736;15.666;2022-08-19T10:43:52;98056.16;;;23.73;100.00
55217;BME280;41086;46.736;15.666;2022-08-19T10:46:22;98048.94;;;23.94;100.00
55217;BME280;41086;46.736;15.666;2022-08-19T10:48:50;98037.34;;;24.06;100.00
55217;BME280;41086;46.736;15.666;2022-08-19T10:51:18;98038.19;;;24.07;100.00
55217;BME280;41086;46.736;15.666;2022-08-19T10:54:14;98042.53;;;24.01;100.00
55217;BME280;41086;46.736;15.666;2022-08-19T10:56:41;98036.47;;;23.99;100.00
55217;BME280;41086;46.736;15.666;2022-08-19T10:59:27;98021.09;;;24.00;100.00
55217;BME280;41086;46.736;15.666;2022-08-19T11:02:03;98019.22;;;24.00;100.00
55217;BME280;41086;46.736;15.666;2022-08-19T11:04:30;98059.22;;;24.05;100.00
55217;BME280;41086;46.736;15.666;2022-08-19T11:06:58;98023.41;;;24.09;100.00
55217;BME280;41086;46.736;15.666;2022-08-19T11:09:26;97984.31;;;24.19;100.00
55217;BME280;41086;46.736;15.666;2022-08-19T11:12:00;97961.22;;;24.29;100.00
55217;BME280;41086;46.736;15.666;2022-08-19T11:14:30;97980.16;;;24.23;100.00
55217;BME280;41086;46.736;15.666;2022-08-19T11:17:00;97973.06;;;24.22;100.00
55217;BME280;41086;46.736;15.666;2022-08-19T11:19:26;97969.28;;;24.09;100.00
55217;BME280;41086;46.736;15.666;2022-08-19T11:21:54;98005.06;;;23.98;100.00
55217;BME280;41086;46.736;15.666;2022-08-19T11:24:25;98024.59;;;23.94;100.00
55217;BME280;41086;46.736;15.666;2022-08-19T11:26:54;98011.94;;;24.01;100.00
55217;BME280;41086;46.736;15.666;2022-08-19T11:29:25;98020.28;;;24.13;100.00
55217;BME280;41086;46.736;15.666;2022-08-19T11:31:54;98017.03;;;24.30;100.00
55217;BME280;41086;46.736;15.666;2022-08-19T11:34:24;98028.97;;;24.56;100.00
55217;BME280;41086;46.736;15.666;2022-08-19T11:36:54;98012.97;;;24.74;100.00
55217;BME280;41086;46.736;15.666;2022-08-19T11:39:26;97986.69;;;24.88;100.00
55217;BME280;41086;46.736;15.666;2022-08-19T11:41:53;98006.50;;;25.29;100.00
55217;BME280;41086;46.736;15.666;2022-08-19T11:44:20;98004.16;;;25.65;100.00
55217;BME280;41086;46.736;15.666;2022-08-19T11:46:47;98002.97;;;26.06;100.00
55217;BME280;41086;46.736;15.666;2022-08-19T11:49:16;98016.25;;;26.21;100.00
55217;BME280;41086;46.736;15.666;2022-08-19T11:51:46;98007.78;;;26.43;100.00
55217;BME280;41086;46.736;15.666;2022-08-19T11:54:14;97994.84;;;26.77;100.00
55217;BME280;41086;46.736;15.666;2022-08-19T11:56:43;97990.34;;;27.14;100.00
55217;BME280;41086;46.736;15.666;2022-08-19T11:59:10;98005.56;;;27.22;100.00
55217;BME280;41086;46.736;15.666;2022-08-19T12:01:40;98002.97;;;27.33;100.00
55217;BME280;41086;46.736;15.666;2022-08-19T12:04:09;98003.66;;;27.47;99.06
55217;BME280;41086;46.736;15.666;2022-08-19T12:06:38;98005.03;;;27.75;90.22
55217;BME280;41086;46.736;15.666;2022-08-19T12:09:08;98003.78;;;28.26;90.81
55217;BME280;41086;46.736;15.666;2022-08-19T12:11:36;98000.75;;;28.64;90.63
55217;BME280;41086;46.736;15.666;2022-08-19T12:14:04;97997.28;;;29.23;91.73
55217;BME280;41086;46.736;15.666;2022-08-19T12:16:32;97995.50;;;29.64;84.56
55217;BME280;41086;46.736;15.666;2022-08-19T12:19:00;97988.16;;;30.04;79.81
55217;BME280;41086;46.736;15.666;2022-08-19T12:21:34;97989.66;;;30.53;76.05
55217;BME280;41086;46.736;15.666;2022-08-19T12:24:03;97978.34;;;30.78;72.30
55217;BME280;41086;46.736;15.666;2022-08-19T12:26:30;97984.94;;;30.94;68.68
55217;BME280;41086;46.736;15.666;2022-08-19T12:28:58;97977.69;;;31.21;63.56
55217;BME280;41086;46.736;15.666;2022-08-19T12:31:29;97974.34;;;31.53;58.50
55217;BME280;41086;46.736;15.666;2022-08-19T12:33:56;97981.59;;;31.42;52.82
55217;BME280;41086;46.736;15.666;2022-08-19T12:36:24;97982.03;;;31.00;57.62
55217;BME280;41086;46.736;15.666;2022-08-19T12:38:52;97984.06;;;31.27;56.46
55217;BME280;41086;46.736;15.666;2022-08-19T12:41:19;97975.03;;;31.26;55.97
55217;BME280;41086;46.736;15.666;2022-08-19T12:43:48;97979.72;;;31.09;55.36
55217;BME280;41086;46.736;15.666;2022-08-19T12:46:18;97977.91;;;30.81;57.49
55217;BME280;41086;46.736;15.666;2022-08-19T12:48:47;97979.13;;;31.07;53.25
55217;BME280;41086;46.736;15.666;2022-08-19T12:51:19;97984.19;;;30.98;54.93
55217;BME280;41086;46.736;15.666;2022-08-19T12:53:47;97981.28;;;31.05;58.73
55217;BME280;41086;46.736;15.666;2022-08-19T12:56:14;97978.44;;;30.83;58.21
55217;BME280;41086;46.736;15.666;2022-08-19T12:58:42;97970.41;;;30.31;63.92
55217;BME280;41086;46.736;15.666;2022-08-19T13:01:15;97974.47;;;30.16;63.13
55217;BME280;41086;46.736;15.666;2022-08-19T13:03:47;97979.00;;;30.22;63.34
55217;BME280;41086;46.736;15.666;2022-08-19T13:06:16;97961.59;;;30.00;66.39
55217;BME280;41086;46.736;15.666;2022-08-19T13:08:45;97956.41;;;29.87;67.19
55217;BME280;41086;46.736;15.666;2022-08-19T13:11:15;97956.25;;;30.05;62.14
55217;BME280;41086;46.736;15.666;2022-08-19T13:13:46;97971.19;;;30.43;60.92
55217;BME280;41086;46.736;15.666;2022-08-19T13:16:14;97968.66;;;30.24;61.81
55217;BME280;41086;46.736;15.666;2022-08-19T13:18:44;97959.41;;;30.14;64.94